sensor_id;sensor_type;location;lat;lon;timestamp;pressure;altitude;pressure_sealevel;temperature
16956;BMP180;8594;52.052;8.354;2022-09-11T00:02:18;100615.00;;;19.80
16956;BMP180;8594;52.052;8.354;2022-09-11T00:04:46;100620.00;;;19.90
16956;BMP180;8594;52.052;8.354;2022-09-11T00:07:12;100618.00;;;19.70
16956;BMP180;8594;52.052;8.354;2022-09-11T00:09:39;100616.00;;;19.50
16956;BMP180;8594;52.052;8.354;2022-09-11T00:12:06;100620.00;;;19.40
16956;BMP180;8594;52.052;8.354;2022-09-11T00:14:34;100628.00;;;19.70
16956;BMP180;8594;52.052;8.354;2022-09-11T00:17:01;100626.00;;;19.70
16956;BMP180;8594;52.052;8.354;2022-09-11T00:19:29;100623.00;;;19.60
16956;BMP180;8594;52.052;8.354;2022-09-11T00:21:56;100622.00;;;19.60
16956;BMP180;8594;52.052;8.354;2022-09-11T00:24:22;100621.00;;;19.50
16956;BMP180;8594;52.052;8.354;2022-09-11T00:26:49;100631.00;;;19.60
16956;BMP180;8594;52.052;8.354;2022-09-11T00:29:16;100626.00;;;19.60
16956;BMP180;8594;52.052;8.354;2022-09-11T00:31:43;100634.00;;;19.20
16956;BMP180;8594;52.052;8.354;2022-09-11T00:34:10;100632.00;;;19.50
16956;BMP180;8594;52.052;8.354;2022-09-11T00:36:38;100626.00;;;19.50
16956;BMP180;8594;52.052;8.354;2022-09-11T00:39:09;100638.00;;;19.30
16956;BMP180;8594;52.052;8.354;2022-09-11T00:41:39;100633.00;;;19.20
16956;BMP180;8594;52.052;8.354;2022-09-11T00:47:16;100630.00;;;19.30
16956;BMP180;8594;52.052;8.354;2022-09-11T00:49:47;100629.00;;;19.40
16956;BMP180;8594;52.052;8.354;2022-09-11T00:52:20;100626.00;;;19.40
16956;BMP180;8594;52.052;8.354;2022-09-11T00:54:52;100631.00;;;19.30
16956;BMP180;8594;52.052;8.354;2022-09-11T00:57:27;100629.00;;;19.30
16956;BMP180;8594;52.052;8.354;2022-09-11T00:59:56;100639.00;;;19.40
16956;BMP180;8594;52.052;8.354;2022-09-11T01:02:29;100636.00;;;19.20
16956;BMP180;8594;52.052;8.354;2022-09-11T01:04:57;100637.00;;;19.00
16956;BMP180;8594;52.052;8.354;2022-09-11T01:07:25;100634.00;;;19.00
16956;BMP180;8594;52.052;8.354;2022-09-11T01:09:54;100639.00;;;19.20
16956;BMP180;8594;52.052;8.354;2022-09-11T01:12:28;100635.00;;;18.90
16956;BMP180;8594;52.052;8.354;2022-09-11T01:15:02;100635.00;;;19.10
16956;BMP180;8594;52.052;8.354;2022-09-11T01:17:41;100639.00;;;19.10
16956;BMP180;8594;52.052;8.354;2022-09-11T01:20:26;100639.00;;;19.30
16956;BMP180;8594;52.052;8.354;2022-09-11T01:23:37;100645.00;;;19.20
16956;BMP180;8594;52.052;8.354;2022-09-11T01:26:36;100649.00;;;19.10
16956;BMP180;8594;52.052;8.354;2022-09-11T01:29:16;100650.00;;;19.30
16956;BMP180;8594;52.052;8.354;2022-09-11T01:31:51;100655.00;;;19.40
16956;BMP180;8594;52.052;8.354;2022-09-11T01:34:26;100652.00;;;19.40
16956;BMP180;8594;52.052;8.354;2022-09-11T01:37:03;100654.00;;;19.40
16956;BMP180;8594;52.052;8.354;2022-09-11T01:39:37;100657.00;;;19.50
16956;BMP180;8594;52.052;8.354;2022-09-11T01:42:11;100658.00;;;19.40
16956;BMP180;8594;52.052;8.354;2022-09-11T01:44:45;100675.00;;;19.50
16956;BMP180;8594;52.052;8.354;2022-09-11T01:47:16;100675.00;;;19.40
16956;BMP180;8594;52.052;8.354;2022-09-11T01:49:47;100680.00;;;19.50
16956;BMP180;8594;52.052;8.354;2022-09-11T01:52:22;100682.00;;;19.30
16956;BMP180;8594;52.052;8.354;2022-09-11T01:54:57;100681.00;;;19.10
16956;BMP180;8594;52.052;8.354;2022-09-11T01:57:34;100678.00;;;19.30
16956;BMP180;8594;52.052;8.354;2022-09-11T02:00:09;100685.00;;;19.00
16956;BMP180;8594;52.052;8.354;2022-09-11T02:02:42;100684.00;;;18.80
16956;BMP180;8594;52.052;8.354;2022-09-11T02:05:15;100686.00;;;18.80
16956;BMP180;8594;52.052;8.354;2022-09-11T02:07:49;100684.00;;;18.70
16956;BMP180;8594;52.052;8.354;2022-09-11T02:10:22;100689.00;;;18.50
16956;BMP180;8594;52.052;8.354;2022-09-11T02:12:56;100684.00;;;18.90
16956;BMP180;8594;52.052;8.354;2022-09-11T02:15:33;100688.00;;;18.90
16956;BMP180;8594;52.052;8.354;2022-09-11T02:18:15;100682.00;;;19.00
16956;BMP180;8594;52.052;8.354;2022-09-11T02:20:43;100693.00;;;19.20
16956;BMP180;8594;52.052;8.354;2022-09-11T02:23:12;100689.00;;;19.20
16956;BMP180;8594;52.052;8.354;2022-09-11T02:25:40;100696.00;;;19.10
16956;BMP180;8594;52.052;8.354;2022-09-11T02:28:07;100697.00;;;19.20
16956;BMP180;8594;52.052;8.354;2022-09-11T02:30:37;100695.00;;;19.10
16956;BMP180;8594;52.052;8.354;2022-09-11T02:33:04;100694.00;;;19.20
16956;BMP180;8594;52.052;8.354;2022-09-11T02:35:38;100690.00;;;19.20
16956;BMP180;8594;52.052;8.354;2022-09-11T02:38:20;100698.00;;;19.10
16956;BMP180;8594;52.052;8.354;2022-09-11T02:40:59;100696.00;;;19.00
16956;BMP180;8594;52.052;8.354;2022-09-11T02:43:44;100701.00;;;18.90
16956;BMP180;8594;52.052;8.354;2022-09-11T02:46:36;100709.00;;;18.90
16956;BMP180;8594;52.052;8.354;2022-09-11T02:49:11;100712.00;;;19.10
16956;BMP180;8594;52.052;8.354;2022-09-11T02:51:53;100713.00;;;19.00
16956;BMP180;8594;52.052;8.354;2022-09-11T02:54:32;100715.00;;;19.10
16956;BMP180;8594;52.052;8.354;2022-09-11T02:57:08;100713.00;;;19.20
16956;BMP180;8594;52.052;8.354;2022-09-11T02:59:41;100719.00;;;19.30
16956;BMP180;8594;52.052;8.354;2022-09-11T03:02:13;100722.00;;;19.50
16956;BMP180;8594;52.052;8.354;2022-09-11T03:04:41;100713.00;;;19.70
16956;BMP180;8594;52.052;8.354;2022-09-11T03:07:09;100710.00;;;20.10
16956;BMP180;8594;52.052;8.354;2022-09-11T03:09:35;100706.00;;;20.10
16956;BMP180;8594;52.052;8.354;2022-09-11T03:12:03;100711.00;;;19.70
16956;BMP180;8594;52.052;8.354;2022-09-11T03:14:30;100718.00;;;19.90
16956;BMP180;8594;52.052;8.354;2022-09-11T03:16:57;100714.00;;;20.10
16956;BMP180;8594;52.052;8.354;2022-09-11T03:19:25;100719.00;;;20.20
16956;BMP180;8594;52.052;8.354;2022-09-11T03:21:52;100721.00;;;19.50
16956;BMP180;8594;52.052;8.354;2022-09-11T03:24:18;100719.00;;;19.40
16956;BMP180;8594;52.052;8.354;2022-09-11T03:26:45;100713.00;;;20.00
16956;BMP180;8594;52.052;8.354;2022-09-11T03:29:12;100719.00;;;19.80
16956;BMP180;8594;52.052;8.354;2022-09-11T03:31:39;100727.00;;;19.90
16956;BMP180;8594;52.052;8.354;2022-09-11T03:34:06;100723.00;;;19.90
16956;BMP180;8594;52.052;8.354;2022-09-11T03:36:34;100721.00;;;20.00
16956;BMP180;8594;52.052;8.354;2022-09-11T03:39:02;100727.00;;;19.90
16956;BMP180;8594;52.052;8.354;2022-09-11T03:41:29;100731.00;;;19.70
16956;BMP180;8594;52.052;8.354;2022-09-11T03:43:56;100725.00;;;18.90
16956;BMP180;8594;52.052;8.354;2022-09-11T03:46:23;100733.00;;;18.90
16956;BMP180;8594;52.052;8.354;2022-09-11T03:48:50;100732.00;;;18.70
16956;BMP180;8594;52.052;8.354;2022-09-11T03:51:17;100734.00;;;18.60
16956;BMP180;8594;52.052;8.354;2022-09-11T03:53:46;100738.00;;;18.50
16956;BMP180;8594;52.052;8.354;2022-09-11T03:56:13;100744.00;;;18.60
16956;BMP180;8594;52.052;8.354;2022-09-11T03:58:40;100747.00;;;18.10
16956;BMP180;8594;52.052;8.354;2022-09-11T04:01:09;100749.00;;;18.30
16956;BMP180;8594;52.052;8.354;2022-09-11T04:03:37;100743.00;;;18.70
16956;BMP180;8594;52.052;8.354;2022-09-11T04:06:04;100750.00;;;19.10
16956;BMP180;8594;52.052;8.354;2022-09-11T04:08:32;100742.00;;;18.60
16956;BMP180;8594;52.052;8.354;2022-09-11T04:11:03;100738.00;;;18.50
16956;BMP180;8594;52.052;8.354;2022-09-11T04:13:33;100739.00;;;19.10
16956;BMP180;8594;52.052;8.354;2022-09-11T04:16:01;100739.00;;;19.30
16956;BMP180;8594;52.052;8.354;2022-09-11T04:18:29;100741.00;;;19.20
16956;BMP180;8594;52.052;8.354;2022-09-11T04:20:57;100747.00;;;19.30
16956;BMP180;8594;52.052;8.354;2022-09-11T04:23:23;100743.00;;;19.20
16956;BMP180;8594;52.052;8.354;2022-09-11T04:25:50;100746.00;;;19.40
16956;BMP180;8594;52.052;8.354;2022-09-11T04:28:19;100745.00;;;19.40
16956;BMP180;8594;52.052;8.354;2022-09-11T04:30:46;100750.00;;;18.90
16956;BMP180;8594;52.052;8.354;2022-09-11T04:33:13;100747.00;;;18.80
16956;BMP180;8594;52.052;8.354;2022-09-11T04:35:40;100756.00;;;18.60
16956;BMP180;8594;52.052;8.354;2022-09-11T04:38:07;100755.00;;;18.60
16956;BMP180;8594;52.052;8.354;2022-09-11T04:40:34;100748.00;;;18.30
16956;BMP180;8594;52.052;8.354;2022-09-11T04:43:02;100756.00;;;18.40
16956;BMP180;8594;52.052;8.354;2022-09-11T04:45:30;100765.00;;;18.60
16956;BMP180;8594;52.052;8.354;2022-09-11T04:47:58;100777.00;;;18.60
16956;BMP180;8594;52.052;8.354;2022-09-11T04:50:25;100774.00;;;18.40
16956;BMP180;8594;52.052;8.354;2022-09-11T04:52:53;100776.00;;;18.20
16956;BMP180;8594;52.052;8.354;2022-09-11T04:55:20;100770.00;;;18.30
16956;BMP180;8594;52.052;8.354;2022-09-11T04:57:47;100775.00;;;18.30
16956;BMP180;8594;52.052;8.354;2022-09-11T05:00:15;100777.00;;;18.30
16956;BMP180;8594;52.052;8.354;2022-09-11T05:02:43;100782.00;;;18.30
16956;BMP180;8594;52.052;8.354;2022-09-11T05:05:12;100783.00;;;18.30
16956;BMP180;8594;52.052;8.354;2022-09-11T05:07:39;100778.00;;;18.20
16956;BMP180;8594;52.052;8.354;2022-09-11T05:10:07;100781.00;;;18.20
16956;BMP180;8594;52.052;8.354;2022-09-11T05:12:35;100791.00;;;18.60
16956;BMP180;8594;52.052;8.354;2022-09-11T05:15:02;100784.00;;;18.30
16956;BMP180;8594;52.052;8.354;2022-09-11T05:17:29;100787.00;;;18.50
16956;BMP180;8594;52.052;8.354;2022-09-11T05:19:57;100787.00;;;18.40
16956;BMP180;8594;52.052;8.354;2022-09-11T05:22:24;100788.00;;;18.70
16956;BMP180;8594;52.052;8.354;2022-09-11T05:24:51;100796.00;;;18.70
16956;BMP180;8594;52.052;8.354;2022-09-11T05:27:18;100792.00;;;18.60
16956;BMP180;8594;52.052;8.354;2022-09-11T05:29:44;100811.00;;;18.50
16956;BMP180;8594;52.052;8.354;2022-09-11T05:32:11;100803.00;;;18.70
16956;BMP180;8594;52.052;8.354;2022-09-11T05:34:39;100804.00;;;18.80
16956;BMP180;8594;52.052;8.354;2022-09-11T05:37:07;100814.00;;;19.00
16956;BMP180;8594;52.052;8.354;2022-09-11T05:39:34;100813.00;;;18.90
16956;BMP180;8594;52.052;8.354;2022-09-11T05:42:00;100814.00;;;19.20
16956;BMP180;8594;52.052;8.354;2022-09-11T05:44:28;100817.00;;;19.10
16956;BMP180;8594;52.052;8.354;2022-09-11T05:46:55;100826.00;;;19.10
16956;BMP180;8594;52.052;8.354;2022-09-11T05:49:23;100819.00;;;19.00
16956;BMP180;8594;52.052;8.354;2022-09-11T05:51:50;100825.00;;;19.00
16956;BMP180;8594;52.052;8.354;2022-09-11T05:54:18;100833.00;;;18.60
16956;BMP180;8594;52.052;8.354;2022-09-11T05:56:44;100826.00;;;18.80
16956;BMP180;8594;52.052;8.354;2022-09-11T05:59:12;100829.00;;;18.80
16956;BMP180;8594;52.052;8.354;2022-09-11T06:01:40;100843.00;;;19.00
16956;BMP180;8594;52.052;8.354;2022-09-11T06:04:09;100838.00;;;18.90
16956;BMP180;8594;52.052;8.354;2022-09-11T06:06:37;100845.00;;;18.90
16956;BMP180;8594;52.052;8.354;2022-09-11T06:09:04;100848.00;;;19.10
16956;BMP180;8594;52.052;8.354;2022-09-11T06:11:32;100852.00;;;19.00
16956;BMP180;8594;52.052;8.354;2022-09-11T06:13:59;100849.00;;;19.20
16956;BMP180;8594;52.052;8.354;2022-09-11T06:16:26;100855.00;;;19.20
16956;BMP180;8594;52.052;8.354;2022-09-11T06:18:55;100861.00;;;19.40
16956;BMP180;8594;52.052;8.354;2022-09-11T06:21:24;100870.00;;;19.30
16956;BMP180;8594;52.052;8.354;2022-09-11T06:23:52;100878.00;;;19.30
16956;BMP180;8594;52.052;8.354;2022-09-11T06:26:21;100872.00;;;19.30
16956;BMP180;8594;52.052;8.354;2022-09-11T06:28:50;100871.00;;;19.30
16956;BMP180;8594;52.052;8.354;2022-09-11T06:31:20;100870.00;;;19.50
16956;BMP180;8594;52.052;8.354;2022-09-11T06:33:48;100873.00;;;19.50
16956;BMP180;8594;52.052;8.354;2022-09-11T06:36:17;100879.00;;;19.30
16956;BMP180;8594;52.052;8.354;2022-09-11T06:38:45;100870.00;;;19.50
16956;BMP180;8594;52.052;8.354;2022-09-11T06:41:14;100866.00;;;19.50
16956;BMP180;8594;52.052;8.354;2022-09-11T06:43:42;100865.00;;;19.60
16956;BMP180;8594;52.052;8.354;2022-09-11T06:46:12;100868.00;;;19.50
16956;BMP180;8594;52.052;8.354;2022-09-11T06:48:40;100861.00;;;19.60
16956;BMP180;8594;52.052;8.354;2022-09-11T06:51:10;100869.00;;;19.40
16956;BMP180;8594;52.052;8.354;2022-09-11T06:53:38;100876.00;;;19.50
16956;BMP180;8594;52.052;8.354;2022-09-11T06:56:08;100879.00;;;19.40
16956;BMP180;8594;52.052;8.354;2022-09-11T06:58:36;100879.00;;;19.70
16956;BMP180;8594;52.052;8.354;2022-09-11T07:01:06;100881.00;;;19.60
16956;BMP180;8594;52.052;8.354;2022-09-11T07:03:35;100882.00;;;19.70
16956;BMP180;8594;52.052;8.354;2022-09-11T07:06:04;100883.00;;;19.50
16956;BMP180;8594;52.052;8.354;2022-09-11T07:08:31;100888.00;;;19.80
16956;BMP180;8594;52.052;8.354;2022-09-11T07:11:02;100894.00;;;19.70
16956;BMP180;8594;52.052;8.354;2022-09-11T07:13:30;100889.00;;;19.80
16956;BMP180;8594;52.052;8.354;2022-09-11T07:16:00;100890.00;;;19.50
16956;BMP180;8594;52.052;8.354;2022-09-11T07:18:33;100894.00;;;19.60
16956;BMP180;8594;52.052;8.354;2022-09-11T07:21:04;100894.00;;;19.80
16956;BMP180;8594;52.052;8.354;2022-09-11T07:23:32;100889.00;;;19.80
16956;BMP180;8594;52.052;8.354;2022-09-11T07:26:02;100888.00;;;19.90
16956;BMP180;8594;52.052;8.354;2022-09-11T07:28:30;100892.00;;;19.70
16956;BMP180;8594;52.052;8.354;2022-09-11T07:31:08;100895.00;;;19.80
16956;BMP180;8594;52.052;8.354;2022-09-11T07:33:38;100887.00;;;19.70
16956;BMP180;8594;52.052;8.354;2022-09-11T07:36:09;100894.00;;;19.60
16956;BMP180;8594;52.052;8.354;2022-09-11T07:38:38;100898.00;;;19.70
16956;BMP180;8594;52.052;8.354;2022-09-11T07:41:06;100895.00;;;19.60
16956;BMP180;8594;52.052;8.354;2022-09-11T07:43:34;100899.00;;;19.80
16956;BMP180;8594;52.052;8.354;2022-09-11T07:46:01;100899.00;;;19.80
16956;BMP180;8594;52.052;8.354;2022-09-11T07:48:28;100901.00;;;19.60
16956;BMP180;8594;52.052;8.354;2022-09-11T07:50:59;100902.00;;;19.80
16956;BMP180;8594;52.052;8.354;2022-09-11T07:53:27;100904.00;;;19.80
16956;BMP180;8594;52.052;8.354;2022-09-11T07:55:54;100909.00;;;19.90
16956;BMP180;8594;52.052;8.354;2022-09-11T07:58:21;100908.00;;;19.90
16956;BMP180;8594;52.052;8.354;2022-09-11T08:00:56;100913.00;;;19.60
16956;BMP180;8594;52.052;8.354;2022-09-11T08:03:23;100915.00;;;19.70
16956;BMP180;8594;52.052;8.354;2022-09-11T08:05:50;100907.00;;;20.00
16956;BMP180;8594;52.052;8.354;2022-09-11T08:08:23;100916.00;;;20.20
16956;BMP180;8594;52.052;8.354;2022-09-11T08:10:50;100915.00;;;20.10
16956;BMP180;8594;52.052;8.354;2022-09-11T08:13:18;100913.00;;;20.00
16956;BMP180;8594;52.052;8.354;2022-09-11T08:15:45;100917.00;;;20.00
16956;BMP180;8594;52.052;8.354;2022-09-11T08:18:13;100925.00;;;20.00
16956;BMP180;8594;52.052;8.354;2022-09-11T08:20:40;100928.00;;;19.90
16956;BMP180;8594;52.052;8.354;2022-09-11T08:23:07;100936.00;;;19.80
16956;BMP180;8594;52.052;8.354;2022-09-11T08:25:36;100930.00;;;20.00
16956;BMP180;8594;52.052;8.354;2022-09-11T08:28:04;100928.00;;;20.00
16956;BMP180;8594;52.052;8.354;2022-09-11T08:30:33;100934.00;;;20.00
16956;BMP180;8594;52.052;8.354;2022-09-11T08:33:03;100941.00;;;19.90
16956;BMP180;8594;52.052;8.354;2022-09-11T08:35:30;100945.00;;;19.80
16956;BMP180;8594;52.052;8.354;2022-09-11T08:37:58;100950.00;;;20.20
16956;BMP180;8594;52.052;8.354;2022-09-11T08:40:27;100954.00;;;20.40
16956;BMP180;8594;52.052;8.354;2022-09-11T08:42:59;100946.00;;;20.70
16956;BMP180;8594;52.052;8.354;2022-09-11T08:45:33;100954.00;;;21.20
16956;BMP180;8594;52.052;8.354;2022-09-11T08:48:01;100953.00;;;21.30
16956;BMP180;8594;52.052;8.354;2022-09-11T08:50:35;100952.00;;;21.40
16956;BMP180;8594;52.052;8.354;2022-09-11T08:53:04;100952.00;;;21.50
16956;BMP180;8594;52.052;8.354;2022-09-11T08:55:37;100958.00;;;21.10
16956;BMP180;8594;52.052;8.354;2022-09-11T08:58:14;100960.00;;;21.00
16956;BMP180;8594;52.052;8.354;2022-09-11T09:00:53;100955.00;;;21.10
16956;BMP180;8594;52.052;8.354;2022-09-11T09:03:58;100957.00;;;20.80
16956;BMP180;8594;52.052;8.354;2022-09-11T09:06:52;100958.00;;;21.60
16956;BMP180;8594;52.052;8.354;2022-09-11T09:09:36;100959.00;;;21.60
16956;BMP180;8594;52.052;8.354;2022-09-11T09:12:16;100962.00;;;21.10
16956;BMP180;8594;52.052;8.354;2022-09-11T09:15:10;100969.00;;;21.50
16956;BMP180;8594;52.052;8.354;2022-09-11T09:17:47;100969.00;;;21.60
16956;BMP180;8594;52.052;8.354;2022-09-11T09:20:21;100972.00;;;21.70
16956;BMP180;8594;52.052;8.354;2022-09-11T09:22:56;100981.00;;;21.30
16956;BMP180;8594;52.052;8.354;2022-09-11T09:25:25;100982.00;;;21.10
16956;BMP180;8594;52.052;8.354;2022-09-11T09:27:58;100986.00;;;21.50
16956;BMP180;8594;52.052;8.354;2022-09-11T09:30:37;100979.00;;;21.40
16956;BMP180;8594;52.052;8.354;2022-09-11T09:33:29;100989.00;;;21.60
16956;BMP180;8594;52.052;8.354;2022-09-11T09:36:12;100993.00;;;21.50
16956;BMP180;8594;52.052;8.354;2022-09-11T09:38:39;100995.00;;;21.70
16956;BMP180;8594;52.052;8.354;2022-09-11T09:41:39;100996.00;;;21.60
16956;BMP180;8594;52.052;8.354;2022-09-11T09:44:19;100998.00;;;21.70
16956;BMP180;8594;52.052;8.354;2022-09-11T09:46:52;100989.00;;;21.60
16956;BMP180;8594;52.052;8.354;2022-09-11T09:49:25;100989.00;;;21.50
16956;BMP180;8594;52.052;8.354;2022-09-11T09:51:55;100996.00;;;21.80
16956;BMP180;8594;52.052;8.354;2022-09-11T09:54:25;101002.00;;;21.90
16956;BMP180;8594;52.052;8.354;2022-09-11T09:57:00;100997.00;;;21.90
16956;BMP180;8594;52.052;8.354;2022-09-11T09:59:34;100999.00;;;21.80
16956;BMP180;8594;52.052;8.354;2022-09-11T10:02:04;101005.00;;;21.60
16956;BMP180;8594;52.052;8.354;2022-09-11T10:04:31;101005.00;;;21.40
16956;BMP180;8594;52.052;8.354;2022-09-11T10:07:08;101004.00;;;21.30
16956;BMP180;8594;52.052;8.354;2022-09-11T10:09:44;100997.00;;;21.50
16956;BMP180;8594;52.052;8.354;2022-09-11T10:12:17;101004.00;;;21.60
16956;BMP180;8594;52.052;8.354;2022-09-11T10:14:51;101006.00;;;21.80
16956;BMP180;8594;52.052;8.354;2022-09-11T10:17:31;101011.00;;;22.20
16956;BMP180;8594;52.052;8.354;2022-09-11T10:20:18;101009.00;;;22.10
16956;BMP180;8594;52.052;8.354;2022-09-11T10:22:48;101005.00;;;21.80
16956;BMP180;8594;52.052;8.354;2022-09-11T10:25:17;101012.00;;;22.10
16956;BMP180;8594;52.052;8.354;2022-09-11T10:28:00;101014.00;;;22.50
16956;BMP180;8594;52.052;8.354;2022-09-11T10:30:32;101015.00;;;22.40
16956;BMP180;8594;52.052;8.354;2022-09-11T10:33:05;101013.00;;;22.40
16956;BMP180;8594;52.052;8.354;2022-09-11T10:35:34;101019.00;;;22.00
16956;BMP180;8594;52.052;8.354;2022-09-11T10:38:15;101024.00;;;22.60
16956;BMP180;8594;52.052;8.354;2022-09-11T10:41:04;101012.00;;;22.00
16956;BMP180;8594;52.052;8.354;2022-09-11T10:43:42;101012.00;;;22.20
16956;BMP180;8594;52.052;8.354;2022-09-11T10:46:27;101020.00;;;23.10
16956;BMP180;8594;52.052;8.354;2022-09-11T10:48:58;101014.00;;;22.80
16956;BMP180;8594;52.052;8.354;2022-09-11T10:51:29;101016.00;;;22.90
16956;BMP180;8594;52.052;8.354;2022-09-11T10:54:13;101008.00;;;22.60
16956;BMP180;8594;52.052;8.354;2022-09-11T10:57:00;101018.00;;;22.70
16956;BMP180;8594;52.052;8.354;2022-09-11T10:59:37;101013.00;;;22.40
16956;BMP180;8594;52.052;8.354;2022-09-11T11:02:18;101013.00;;;23.00
16956;BMP180;8594;52.052;8.354;2022-09-11T11:04:47;101017.00;;;22.80
16956;BMP180;8594;52.052;8.354;2022-09-11T11:07:36;101010.00;;;22.90
16956;BMP180;8594;52.052;8.354;2022-09-11T11:10:27;101006.00;;;23.10
16956;BMP180;8594;52.052;8.354;2022-09-11T11:13:09;101007.00;;;24.00
16956;BMP180;8594;52.052;8.354;2022-09-11T11:15:56;101012.00;;;24.00
16956;BMP180;8594;52.052;8.354;2022-09-11T11:18:55;101010.00;;;24.10
16956;BMP180;8594;52.052;8.354;2022-09-11T11:21:42;101002.00;;;24.40
16956;BMP180;8594;52.052;8.354;2022-09-11T11:24:31;101005.00;;;24.40
16956;BMP180;8594;52.052;8.354;2022-09-11T11:27:29;101012.00;;;24.20
16956;BMP180;8594;52.052;8.354;2022-09-11T11:30:10;100999.00;;;24.50
16956;BMP180;8594;52.052;8.354;2022-09-11T11:33:18;101012.00;;;24.50
16956;BMP180;8594;52.052;8.354;2022-09-11T11:36:01;101010.00;;;24.70
16956;BMP180;8594;52.052;8.354;2022-09-11T11:38:37;101018.00;;;23.90
16956;BMP180;8594;52.052;8.354;2022-09-11T11:41:13;101011.00;;;23.30
16956;BMP180;8594;52.052;8.354;2022-09-11T11:43:43;101026.00;;;23.70
16956;BMP180;8594;52.052;8.354;2022-09-11T11:46:16;101025.00;;;24.80
16956;BMP180;8594;52.052;8.354;2022-09-11T11:48:51;101026.00;;;24.20
16956;BMP180;8594;52.052;8.354;2022-09-11T11:51:25;101029.00;;;23.80
16956;BMP180;8594;52.052;8.354;2022-09-11T11:54:00;101026.00;;;24.00
16956;BMP180;8594;52.052;8.354;2022-09-11T11:56:36;101024.00;;;23.90
16956;BMP180;8594;52.052;8.354;2022-09-11T11:59:14;101028.00;;;23.70
16956;BMP180;8594;52.052;8.354;2022-09-11T12:01:47;101025.00;;;23.50
16956;BMP180;8594;52.052;8.354;2022-09-11T12:04:30;101031.00;;;23.60
16956;BMP180;8594;52.052;8.354;2022-09-11T12:06:58;101018.00;;;24.20
16956;BMP180;8594;52.052;8.354;2022-09-11T12:09:28;101023.00;;;24.00
16956;BMP180;8594;52.052;8.354;2022-09-11T12:12:04;101029.00;;;24.20
16956;BMP180;8594;52.052;8.354;2022-09-11T12:14:32;101027.00;;;23.50
16956;BMP180;8594;52.052;8.354;2022-09-11T12:17:17;101028.00;;;23.80
16956;BMP180;8594;52.052;8.354;2022-09-11T12:20:29;101024.00;;;23.90
16956;BMP180;8594;52.052;8.354;2022-09-11T12:22:57;101031.00;;;23.80
16956;BMP180;8594;52.052;8.354;2022-09-11T12:26:03;101029.00;;;23.50
16956;BMP180;8594;52.052;8.354;2022-09-11T12:28:31;101025.00;;;23.00
16956;BMP180;8594;52.052;8.354;2022-09-11T12:31:06;101028.00;;;23.10
16956;BMP180;8594;52.052;8.354;2022-09-11T12:33:54;101025.00;;;23.00
16956;BMP180;8594;52.052;8.354;2022-09-11T12:36:34;101027.00;;;23.20
16956;BMP180;8594;52.052;8.354;2022-09-11T12:39:23;101024.00;;;23.40
16956;BMP180;8594;52.052;8.354;2022-09-11T12:44:58;101020.00;;;23.10
16956;BMP180;8594;52.052;8.354;2022-09-11T12:47:28;101020.00;;;23.40
16956;BMP180;8594;52.052;8.354;2022-09-11T12:50:06;101011.00;;;24.00
16956;BMP180;8594;52.052;8.354;2022-09-11T12:52:46;101017.00;;;23.20
16956;BMP180;8594;52.052;8.354;2022-09-11T12:55:32;101014.00;;;23.10
16956;BMP180;8594;52.052;8.354;2022-09-11T12:58:06;101012.00;;;23.60
16956;BMP180;8594;52.052;8.354;2022-09-11T13:00:50;101016.00;;;23.70
16956;BMP180;8594;52.052;8.354;2022-09-11T13:03:26;101011.00;;;23.60
16956;BMP180;8594;52.052;8.354;2022-09-11T13:05:58;101009.00;;;23.60
16956;BMP180;8594;52.052;8.354;2022-09-11T13:08:32;101010.00;;;23.30
16956;BMP180;8594;52.052;8.354;2022-09-11T13:11:39;101007.00;;;23.50
16956;BMP180;8594;52.052;8.354;2022-09-11T13:14:47;101003.00;;;23.10
16956;BMP180;8594;52.052;8.354;2022-09-11T13:17:22;100993.00;;;23.30
16956;BMP180;8594;52.052;8.354;2022-09-11T13:19:52;100999.00;;;23.80
16956;BMP180;8594;52.052;8.354;2022-09-11T13:22:22;100996.00;;;23.70
16956;BMP180;8594;52.052;8.354;2022-09-11T13:24:51;100993.00;;;23.80
16956;BMP180;8594;52.052;8.354;2022-09-11T13:27:29;100993.00;;;23.60
16956;BMP180;8594;52.052;8.354;2022-09-11T13:29:59;100992.00;;;23.90
16956;BMP180;8594;52.052;8.354;2022-09-11T13:32:27;100994.00;;;24.40
16956;BMP180;8594;52.052;8.354;2022-09-11T13:34:58;100992.00;;;24.40
16956;BMP180;8594;52.052;8.354;2022-09-11T13:37:36;100991.00;;;24.40
16956;BMP180;8594;52.052;8.354;2022-09-11T13:40:06;100985.00;;;24.50
16956;BMP180;8594;52.052;8.354;2022-09-11T13:42:40;100984.00;;;24.30
16956;BMP180;8594;52.052;8.354;2022-09-11T13:45:16;100981.00;;;24.70
16956;BMP180;8594;52.052;8.354;2022-09-11T13:47:43;100976.00;;;25.20
16956;BMP180;8594;52.052;8.354;2022-09-11T13:50:13;100975.00;;;25.00
16956;BMP180;8594;52.052;8.354;2022-09-11T13:52:43;100973.00;;;25.10
16956;BMP180;8594;52.052;8.354;2022-09-11T13:55:16;100982.00;;;24.40
16956;BMP180;8594;52.052;8.354;2022-09-11T13:57:54;100967.00;;;24.70
16956;BMP180;8594;52.052;8.354;2022-09-11T14:00:39;100962.00;;;24.70
16956;BMP180;8594;52.052;8.354;2022-09-11T14:03:17;100966.00;;;24.60
16956;BMP180;8594;52.052;8.354;2022-09-11T14:05:52;100955.00;;;24.90
16956;BMP180;8594;52.052;8.354;2022-09-11T14:08:29;100948.00;;;24.70
16956;BMP180;8594;52.052;8.354;2022-09-11T14:11:02;100945.00;;;24.90
16956;BMP180;8594;52.052;8.354;2022-09-11T14:13:34;100945.00;;;25.00
16956;BMP180;8594;52.052;8.354;2022-09-11T14:16:19;100950.00;;;25.40
16956;BMP180;8594;52.052;8.354;2022-09-11T14:18:49;100952.00;;;25.60
16956;BMP180;8594;52.052;8.354;2022-09-11T14:21:21;100950.00;;;25.10
16956;BMP180;8594;52.052;8.354;2022-09-11T14:23:52;100950.00;;;25.50
16956;BMP180;8594;52.052;8.354;2022-09-11T14:26:21;100947.00;;;25.60
16956;BMP180;8594;52.052;8.354;2022-09-11T14:29:00;100948.00;;;25.70
16956;BMP180;8594;52.052;8.354;2022-09-11T14:31:35;100938.00;;;25.80
16956;BMP180;8594;52.052;8.354;2022-09-11T14:34:16;100943.00;;;25.30
16956;BMP180;8594;52.052;8.354;2022-09-11T14:36:48;100941.00;;;25.60
16956;BMP180;8594;52.052;8.354;2022-09-11T14:39:24;100938.00;;;25.60
16956;BMP180;8594;52.052;8.354;2022-09-11T14:41:53;100933.00;;;25.30
16956;BMP180;8594;52.052;8.354;2022-09-11T14:44:22;100935.00;;;25.60
16956;BMP180;8594;52.052;8.354;2022-09-11T14:46:52;100929.00;;;25.30
16956;BMP180;8594;52.052;8.354;2022-09-11T14:49:21;100932.00;;;25.60